createdAt,value
2018-03-18T00:02:01.354Z,2.46
2018-03-18T00:07:52.071Z,1.92
2018-03-18T00:13:42.793Z,1.98
2018-03-18T00:19:33.536Z,2.61
2018-03-18T00:25:24.111Z,2.21
2018-03-18T00:31:14.927Z,2.13
2018-03-18T00:37:05.516Z,2.1
2018-03-18T00:42:56.324Z,1.98
2018-03-18T00:48:46.928Z,1.98
2018-03-18T00:54:37.692Z,1.89
2018-03-18T01:00:28.366Z,2.87
2018-03-18T01:06:19.026Z,2.67
2018-03-18T01:12:09.690Z,2.08
2018-03-18T01:18:00.468Z,2.72
2018-03-18T01:23:51.187Z,2.24
2018-03-18T01:29:41.823Z,2.33
2018-03-18T01:35:32.505Z,2.56
2018-03-18T01:41:23.189Z,1.95
2018-03-18T01:47:13.991Z,2.24
2018-03-18T01:53:04.607Z,2.28
2018-03-18T01:58:55.283Z,1.71
2018-03-18T02:04:46.024Z,2.51
2018-03-18T02:10:36.716Z,1.96
2018-03-18T02:16:27.434Z,1.9
2018-03-18T02:22:18.109Z,2.09
2018-03-18T02:28:08.808Z,1.74
2018-03-18T02:33:59.454Z,1.96
2018-03-18T02:39:50.302Z,1.87
2018-03-18T02:45:40.900Z,1.9
2018-03-18T02:51:31.610Z,1.7
2018-03-18T02:57:22.240Z,1.47
2018-03-18T03:03:12.986Z,1.64
2018-03-18T03:09:03.706Z,1.35
2018-03-18T03:14:54.334Z,1.6
2018-03-18T03:20:45.142Z,1.56
2018-03-18T03:26:35.814Z,1.43
2018-03-18T03:32:26.477Z,1.06
2018-03-18T03:38:17.190Z,1.33
2018-03-18T03:44:07.923Z,1.56
2018-03-18T03:49:58.521Z,1.6
2018-03-18T03:55:49.210Z,1.31
2018-03-18T04:01:39.942Z,1.46
2018-03-18T04:07:30.615Z,1.5
2018-03-18T04:13:21.333Z,1.43
2018-03-18T04:19:12.028Z,1.52
2018-03-18T04:25:02.701Z,1.31
2018-03-18T04:30:53.465Z,1.26
2018-03-18T04:36:44.123Z,1.6
2018-03-18T04:42:34.795Z,1.45
2018-03-18T04:48:25.535Z,1.3
2018-03-18T04:54:16.222Z,1.05
2018-03-18T05:00:06.872Z,1.39
2018-03-18T05:05:57.596Z,1.25
2018-03-18T05:11:48.270Z,1.26
2018-03-18T05:17:39.013Z,2.09
2018-03-18T05:23:29.692Z,1.74
2018-03-18T05:29:20.366Z,2.61
2018-03-18T05:35:11.087Z,3.35
2018-03-18T05:41:01.810Z,3.2
2018-03-18T05:46:52.442Z,3.72
2018-03-18T05:52:43.163Z,2.26
2018-03-18T05:58:33.868Z,1.77
2018-03-18T06:04:24.573Z,3.29
2018-03-18T06:10:15.280Z,2.01
2018-03-18T06:16:05.924Z,1.91
2018-03-18T06:21:56.649Z,2.12
2018-03-18T06:27:47.315Z,2
2018-03-18T06:33:38.080Z,1.84
2018-03-18T06:39:28.751Z,1.59
2018-03-18T06:45:19.520Z,1.44
2018-03-18T06:51:10.136Z,1.52
2018-03-18T06:57:00.798Z,1.52
2018-03-18T07:02:51.565Z,1.61
2018-03-18T07:08:42.227Z,1.13
2018-03-18T07:14:32.926Z,1.46
2018-03-18T07:20:23.663Z,1.5
2018-03-18T07:26:14.308Z,1.51
2018-03-18T07:32:05.004Z,1.59
2018-03-18T07:37:55.747Z,1.59
2018-03-18T07:43:46.461Z,1.61
2018-03-18T07:49:37.125Z,1.17
2018-03-18T07:55:27.824Z,1.02
2018-03-18T08:01:18.532Z,1.07
2018-03-18T08:07:09.198Z,1.01
2018-03-18T08:12:59.908Z,1.38
2018-03-18T08:18:50.622Z,1.19
2018-03-18T08:24:41.246Z,1.34
2018-03-18T08:30:31.992Z,1.72
2018-03-18T08:36:22.681Z,1.23
2018-03-18T08:42:13.382Z,1.73
2018-03-18T08:48:04.133Z,1.77
2018-03-18T08:53:54.770Z,1.27
2018-03-18T08:59:45.474Z,1.6
2018-03-18T09:05:36.182Z,1.51
2018-03-18T09:11:26.855Z,1.94
2018-03-18T09:17:17.586Z,1.43
2018-03-18T09:23:08.257Z,1.74
2018-03-18T09:28:58.974Z,1.76
2018-03-18T09:34:49.671Z,1.61
2018-03-18T09:40:40.393Z,1.33
2018-03-18T09:46:31.068Z,1.4
2018-03-18T09:52:21.727Z,1.51
2018-03-18T09:58:12.484Z,1.5
2018-03-18T10:04:03.159Z,1.43
2018-03-18T10:09:53.860Z,1.44
2018-03-18T10:15:44.562Z,1.56
2018-03-18T10:21:35.243Z,1.59
2018-03-18T10:27:25.961Z,1.42
2018-03-18T10:33:16.645Z,1.1
2018-03-18T10:39:07.384Z,1.3
2018-03-18T10:44:58.039Z,1.46
2018-03-18T10:50:48.731Z,2.06
2018-03-18T10:56:39.457Z,1.61
2018-03-18T11:02:30.134Z,2.04
2018-03-18T11:08:20.820Z,2.09
2018-03-18T11:14:11.562Z,1.21
2018-03-18T11:20:02.265Z,1.12
2018-03-18T11:25:52.957Z,1.62
2018-03-18T11:31:43.648Z,1.81
2018-03-18T11:37:34.344Z,1.98
2018-03-18T11:43:25.006Z,1.51
2018-03-18T11:49:15.753Z,1.69
2018-03-18T11:55:06.420Z,1.27
2018-03-18T12:00:57.124Z,2.25
2018-03-18T12:06:47.881Z,1.55
2018-03-18T12:12:38.535Z,1.61
2018-03-18T12:18:29.241Z,1.81
2018-03-18T12:24:19.929Z,2.45
2018-03-18T12:30:10.620Z,2.37
2018-03-18T12:36:01.293Z,1.17
2018-03-18T12:41:52.016Z,1.85
2018-03-18T12:47:42.694Z,1.24
2018-03-18T12:53:33.453Z,1.33
2018-03-18T12:59:24.140Z,1.37
2018-03-18T13:05:14.828Z,1.35
2018-03-18T13:11:05.539Z,1.23
2018-03-18T13:16:56.184Z,0.94
2018-03-18T13:22:46.891Z,1.18
2018-03-18T13:28:37.586Z,1.12
2018-03-18T13:34:28.357Z,0.91
2018-03-18T13:40:19.031Z,1.22
2018-03-18T13:46:09.780Z,1.23
2018-03-18T13:52:00.402Z,1.9
2018-03-18T13:57:51.123Z,0.95
2018-03-18T14:03:41.784Z,1.15
2018-03-18T14:09:32.530Z,1.08
2018-03-18T14:15:23.199Z,1.3
2018-03-18T14:21:13.898Z,0.99
2018-03-18T14:27:04.635Z,0.96
2018-03-18T14:32:55.361Z,1.06
2018-03-18T14:38:46.063Z,0.92
2018-03-18T14:44:36.737Z,0.96
2018-03-18T14:50:27.419Z,1.27
2018-03-18T14:56:18.134Z,1.02
2018-03-18T15:02:08.830Z,1.34
2018-03-18T15:07:59.615Z,1.19
2018-03-18T15:13:50.284Z,1.26
2018-03-18T15:19:40.975Z,1.14
2018-03-18T15:25:31.659Z,1.34
2018-03-18T15:31:22.379Z,1.32
2018-03-18T15:37:13.058Z,1.27
2018-03-18T15:43:03.793Z,0.95
2018-03-18T15:48:54.458Z,1.24
2018-03-18T15:54:45.201Z,1.37
2018-03-18T16:00:35.891Z,1.17
2018-03-18T16:06:26.645Z,1.27
2018-03-18T16:12:17.312Z,1.2
2018-03-18T16:18:08.041Z,1.28
2018-03-18T16:23:58.724Z,2.34
2018-03-18T16:29:49.371Z,1.63
2018-03-18T16:35:40.113Z,1.51
2018-03-18T16:41:30.807Z,1.4
2018-03-18T16:47:21.522Z,1.35
2018-03-18T16:53:12.177Z,1.56
2018-03-18T16:59:02.901Z,2.14
2018-03-18T17:04:53.618Z,2.21
2018-03-18T17:10:44.329Z,4.12
2018-03-18T17:16:35.016Z,1.6
2018-03-18T17:22:25.686Z,2.18
2018-03-18T17:28:16.372Z,2.04
2018-03-18T17:34:07.066Z,6.95
2018-03-18T17:39:57.811Z,5.07
2018-03-18T17:45:48.492Z,4.07
2018-03-18T17:51:39.214Z,4.62
2018-03-18T17:57:29.920Z,5.54
2018-03-18T18:03:20.661Z,3.59
2018-03-18T18:09:11.273Z,4.49
2018-03-18T18:15:01.980Z,4.98
2018-03-18T18:20:52.678Z,3.84
2018-03-18T18:26:43.437Z,3.98
2018-03-18T18:32:34.083Z,4.28
2018-03-18T18:38:24.841Z,4.7
2018-03-18T18:44:15.490Z,4.96
2018-03-18T18:50:06.260Z,4.39
2018-03-18T18:55:56.911Z,5.36
2018-03-18T19:01:47.597Z,3.65
2018-03-18T19:07:38.366Z,5.07
2018-03-18T19:13:29.004Z,4.49
2018-03-18T19:19:19.688Z,4.9
2018-03-18T19:25:10.404Z,7.6
2018-03-18T19:31:01.107Z,4.04
2018-03-18T19:36:51.783Z,4.5
2018-03-18T19:42:42.514Z,3.3
2018-03-18T19:48:33.213Z,2.97
2018-03-18T19:54:23.924Z,2.71
2018-03-18T20:00:14.621Z,2.87
2018-03-18T20:06:05.256Z,3.8
2018-03-18T20:11:56.014Z,3
2018-03-18T20:17:46.732Z,3.04
2018-03-18T20:23:37.373Z,2.69
2018-03-18T20:29:28.093Z,3.44
2018-03-18T20:35:18.840Z,5.22
2018-03-18T20:41:09.464Z,3.7
2018-03-18T20:47:00.164Z,2.69
2018-03-18T20:52:50.874Z,2.59
2018-03-18T20:58:41.570Z,2.41
2018-03-18T21:04:32.240Z,2.25
2018-03-18T21:10:22.944Z,1.83
2018-03-18T21:16:13.648Z,2.18
2018-03-18T21:22:04.348Z,2.23
2018-03-18T21:27:55.095Z,2.75
2018-03-18T21:33:45.762Z,4.1
2018-03-18T21:39:36.476Z,2.77
2018-03-18T21:45:27.091Z,2.38
2018-03-18T21:51:17.856Z,2.88
2018-03-18T21:57:08.536Z,2
2018-03-18T22:02:59.252Z,2.51
2018-03-18T22:08:49.888Z,2.26
2018-03-18T22:14:40.637Z,2.53
2018-03-18T22:20:31.298Z,1.55
2018-03-18T22:26:22.029Z,1.54
2018-03-18T22:32:12.688Z,1.32
2018-03-18T22:38:03.397Z,1.94
2018-03-18T22:43:54.092Z,1.43
2018-03-18T22:49:44.759Z,2.74
2018-03-18T22:55:35.451Z,2.07
2018-03-18T23:01:26.225Z,1.41
2018-03-18T23:07:16.899Z,0.91
2018-03-18T23:13:07.614Z,1.19
2018-03-18T23:18:58.252Z,1.05
2018-03-18T23:24:48.944Z,1.18
2018-03-18T23:30:39.614Z,1.32
2018-03-18T23:36:30.338Z,1.55
2018-03-18T23:42:21.020Z,1.33
2018-03-18T23:48:11.771Z,0.92
2018-03-18T23:54:02.398Z,0.96
2018-03-18T23:59:53.090Z,0.96
